Time;durP1;ratioP1;P1;durP2;ratioP2;P2;SDS_P1;SDS_P2;PMS_P1;PMS_P2;Temp;Humidity;BMP_temperature;BMP_pressure;BME280_temperature;BME280_humidity;BME280_pressure;Samples;Min_cycle;Max_cycle;Signal;HPM_P1;HPM_P2
2024/01/13 00:02:03;;;;;;;86.65;40.90;;;;;;;-142.57;100.00;55416.16;5039534;28;20041;-80
2024/01/13 00:04:28;;;;;;;84.30;38.67;;;;;;;-142.57;100.00;55393.91;5035215;28;20052;-80
2024/01/13 00:06:54;;;;;;;82.00;39.13;;;;;;;-142.57;100.00;55414.13;5031587;28;20044;-80
2024/01/13 00:09:19;;;;;;;88.57;40.63;;;;;;;-142.57;100.00;55373.72;5032322;28;20037;-80
2024/01/13 00:11:45;;;;;;;83.22;41.90;;;;;;;-142.57;100.00;55365.63;5014349;28;20037;-81
2024/01/13 00:14:11;;;;;;;90.00;42.13;;;;;;;-142.57;100.00;55337.34;5035853;28;20052;-80
2024/01/13 00:16:36;;;;;;;87.07;41.92;;;;;;;-142.57;100.00;55345.44;5036352;28;20481;-79
2024/01/13 00:19:02;;;;;;;86.20;40.45;;;;;;;-142.57;100.00;55329.28;5036323;28;20030;-78
2024/01/13 00:21:27;;;;;;;81.47;39.63;;;;;;;-142.57;100.00;55319.16;5036536;28;20030;-79
2024/01/13 00:23:53;;;;;;;84.60;38.83;;;;;;;-142.57;100.00;55333.31;5035967;28;20048;-80
2024/01/13 00:26:18;;;;;;;83.50;39.45;;;;;;;-142.57;100.00;55313.09;5035138;28;20037;-80
2024/01/13 00:28:46;;;;;;;87.47;39.28;;;;;;;-142.57;100.00;55331.28;5036353;28;20577;-79
2024/01/13 00:31:12;;;;;;;83.85;35.88;;;;;;;-142.57;100.00;55361.59;5036573;28;20112;-79
2024/01/13 00:33:39;;;;;;;82.05;38.85;;;;;;;-142.57;100.00;55393.91;5036074;28;20360;-79
2024/01/13 00:36:05;;;;;;;75.32;37.08;;;;;;;-142.57;100.00;55345.44;5036078;28;20040;-80
2024/01/13 00:38:30;;;;;;;76.57;35.35;;;;;;;-142.57;100.00;55361.59;5035787;28;20026;-81
2024/01/13 00:40:56;;;;;;;73.85;35.40;;;;;;;-142.57;100.00;55327.25;5035811;28;20038;-80
2024/01/13 00:43:21;;;;;;;72.97;34.40;;;;;;;-142.57;100.00;55385.84;5035881;28;20088;-79
2024/01/13 00:45:47;;;;;;;72.47;35.33;;;;;;;-142.57;100.00;55353.50;5035776;28;20072;-80
2024/01/13 00:48:12;;;;;;;75.72;36.00;;;;;;;-142.57;100.00;55406.03;5035843;28;20061;-81
2024/01/13 00:50:38;;;;;;;71.22;35.85;;;;;;;-142.57;100.00;55420.19;5035631;28;20036;-79
2024/01/13 00:53:03;;;;;;;76.85;35.20;;;;;;;-142.57;100.00;55369.69;5035635;28;20439;-79
2024/01/13 00:55:29;;;;;;;75.10;35.38;;;;;;;-142.57;100.00;55375.75;5036038;28;20037;-80
2024/01/13 00:57:54;;;;;;;75.88;35.78;;;;;;;-142.57;100.00;55410.09;5035524;28;20057;-80
2024/01/13 01:00:20;;;;;;;78.88;36.70;;;;;;;-142.57;100.00;55416.16;5035387;28;20044;-79
2024/01/13 01:02:45;;;;;;;77.88;37.72;;;;;;;-142.57;100.00;55325.22;5035651;28;20045;-81
2024/01/13 01:05:11;;;;;;;78.50;37.33;;;;;;;-142.57;100.00;55341.38;5035591;28;20033;-78
2024/01/13 01:07:37;;;;;;;79.35;38.70;;;;;;;-142.57;100.00;55337.34;5035328;28;20029;-78
2024/01/13 01:10:03;;;;;;;88.82;40.03;;;;;;;-142.57;100.00;55321.19;5035525;28;20026;-80
2024/01/13 01:12:28;;;;;;;87.72;40.75;;;;;;;-142.57;100.00;55317.16;5034358;28;20037;-81
2024/01/13 01:14:54;;;;;;;89.97;42.28;;;;;;;-142.57;100.00;55335.34;5035381;28;20436;-82
2024/01/13 01:17:19;;;;;;;92.22;41.08;;;;;;;-142.57;100.00;55345.44;5035790;28;20467;-80
2024/01/13 01:19:45;;;;;;;87.95;41.83;;;;;;;-142.57;100.00;55361.59;5035010;28;20451;-80
2024/01/13 01:22:10;;;;;;;89.32;42.45;;;;;;;-142.57;100.00;55333.31;5035032;28;20088;-79
2024/01/13 01:24:36;;;;;;;94.63;41.92;;;;;;;-142.57;100.00;55313.09;5033922;28;20095;-79
2024/01/13 01:27:01;;;;;;;93.25;42.30;;;;;;;-142.57;100.00;55321.19;5034875;28;20546;-79
2024/01/13 01:29:27;;;;;;;89.82;41.15;;;;;;;-142.57;100.00;55321.19;5017449;28;20438;-81
2024/01/13 01:31:53;;;;;;;80.80;39.20;;;;;;;-142.57;100.00;55353.50;5035105;28;20041;-78
2024/01/13 01:34:19;;;;;;;84.25;38.88;;;;;;;-142.57;100.00;55357.56;5033711;28;20037;-82
2024/01/13 01:36:44;;;;;;;85.30;39.22;;;;;;;-142.57;100.00;55345.44;5034694;28;20088;-78
2024/01/13 01:39:10;;;;;;;77.95;37.55;;;;;;;-142.57;100.00;55353.50;5035090;28;20096;-80
2024/01/13 01:41:35;;;;;;;74.75;36.08;;;;;;;-142.57;100.00;55377.75;5033472;28;20044;-81
2024/01/13 01:44:01;;;;;;;80.57;36.58;;;;;;;-142.57;100.00;55329.28;5016706;28;20040;-82
2024/01/13 01:46:30;;;;;;;73.03;35.70;;;;;;;-142.57;100.00;55357.56;5035015;28;20128;-81
2024/01/13 01:48:58;;;;;;;75.30;35.92;;;;;;;-142.57;100.00;55373.72;5035907;28;20022;-81
2024/01/13 01:51:26;;;;;;;71.85;35.97;;;;;;;-142.57;100.00;55381.81;5035022;28;20405;-79
2024/01/13 01:53:52;;;;;;;83.68;36.28;;;;;;;-142.57;100.00;55365.63;5033169;28;20025;-79
2024/01/13 01:56:22;;;;;;;73.15;34.47;;;;;;;-142.57;100.00;55353.50;5034535;28;20038;-80
2024/01/13 01:58:50;;;;;;;76.25;36.00;;;;;;;-142.57;100.00;55329.28;5034476;28;20083;-80
2024/01/13 02:01:17;;;;;;;77.78;35.85;;;;;;;-142.57;100.00;55351.50;5034431;28;20483;-80
2024/01/13 02:03:43;;;;;;;72.65;35.47;;;;;;;-142.57;100.00;55369.69;5034793;28;20037;-79
2024/01/13 02:06:10;;;;;;;76.28;36.10;;;;;;;-142.57;100.00;55365.63;5033047;28;20025;-80
2024/01/13 02:08:40;;;;;;;76.63;37.17;;;;;;;-142.57;100.00;55361.59;5033980;28;20037;-79
2024/01/13 02:11:06;;;;;;;76.20;37.42;;;;;;;-142.57;100.00;55389.88;5034098;28;20547;-81
2024/01/13 02:13:32;;;;;;;76.95;37.35;;;;;;;-142.57;100.00;55369.69;5034501;28;20038;-79
2024/01/13 02:15:58;;;;;;;76.63;36.90;;;;;;;-142.57;100.00;55393.91;5034651;28;20042;-81
2024/01/13 02:18:24;;;;;;;75.85;36.30;;;;;;;-142.57;100.00;55389.88;5036227;28;20049;-80
2024/01/13 02:20:49;;;;;;;77.10;38.22;;;;;;;-142.57;100.00;55351.50;5041582;28;20034;-80
2024/01/13 02:23:15;;;;;;;73.53;35.85;;;;;;;-142.57;100.00;55325.22;5036761;28;20048;-78
2024/01/13 02:25:40;;;;;;;79.68;36.08;;;;;;;-142.57;100.00;55333.31;5034613;28;20481;-79
2024/01/13 02:28:06;;;;;;;82.25;37.17;;;;;;;-142.57;100.00;55369.69;5016403;28;20112;-80
2024/01/13 02:30:31;;;;;;;73.53;35.83;;;;;;;-142.57;100.00;55357.56;5033658;28;20061;-81
2024/01/13 02:32:57;;;;;;;72.53;36.30;;;;;;;-142.57;100.00;55365.63;5033944;28;20056;-81
2024/01/13 02:35:22;;;;;;;77.55;35.90;;;;;;;-142.57;100.00;55385.84;5033701;28;20068;-79
2024/01/13 02:37:48;;;;;;;76.68;37.13;;;;;;;-142.57;100.00;55369.69;5032950;28;20069;-79
2024/01/13 02:40:14;;;;;;;73.43;35.00;;;;;;;-142.57;100.00;55406.03;5033510;28;20038;-78
2024/01/13 02:42:39;;;;;;;81.88;36.78;;;;;;;-142.57;100.00;55347.44;5033592;28;20044;-81
2024/01/13 02:45:05;;;;;;;73.88;36.40;;;;;;;-142.57;100.00;55365.63;5033643;28;20041;-79
2024/01/13 02:47:43;;;;;;;73.78;36.42;;;;;;;-142.57;100.00;55365.63;5034208;28;20034;-80
2024/01/13 02:50:10;;;;;;;79.32;36.88;;;;;;;-142.57;100.00;55375.75;5033660;28;20026;-79
2024/01/13 02:52:36;;;;;;;71.30;35.25;;;;;;;-142.57;100.00;55351.50;5032551;28;20068;-80
2024/01/13 02:55:01;;;;;;;74.57;35.92;;;;;;;-142.57;100.00;55369.69;5032697;28;20467;-78
2024/01/13 02:57:27;;;;;;;79.72;35.90;;;;;;;-142.57;100.00;55397.97;5032574;28;20091;-79
2024/01/13 02:59:52;;;;;;;78.40;37.45;;;;;;;-142.57;100.00;55353.50;5034043;28;20034;-79
2024/01/13 03:02:18;;;;;;;75.85;36.88;;;;;;;-142.57;100.00;55355.53;5033884;28;20076;-80
2024/01/13 03:04:43;;;;;;;81.10;37.50;;;;;;;-142.57;100.00;55379.78;5032417;28;20037;-79
2024/01/13 03:07:09;;;;;;;86.18;40.58;;;;;;;-142.57;100.00;55365.63;5033741;28;20394;-80
2024/01/13 03:09:34;;;;;;;92.30;42.55;;;;;;;-142.57;100.00;55357.56;5032755;28;20033;-80
2024/01/13 03:12:00;;;;;;;86.38;40.95;;;;;;;-142.57;100.00;55345.44;5033764;28;20395;-79
2024/01/13 03:14:26;;;;;;;87.25;40.78;;;;;;;-142.57;100.00;55375.75;5032371;28;20061;-80
2024/01/13 03:16:51;;;;;;;83.97;40.08;;;;;;;-142.57;100.00;55375.75;5033621;28;20032;-80
2024/01/13 03:19:17;;;;;;;83.40;38.65;;;;;;;-142.57;100.00;55379.78;5032087;28;20038;-78
2024/01/13 03:21:43;;;;;;;80.10;39.03;;;;;;;-142.57;100.00;55373.72;5034283;28;20179;-79
2024/01/13 03:24:09;;;;;;;74.15;37.22;;;;;;;-142.57;100.00;55353.50;5033632;28;20503;-80
2024/01/13 03:26:34;;;;;;;77.78;36.97;;;;;;;-142.57;100.00;55377.75;5033425;28;20072;-81
2024/01/13 03:29:00;;;;;;;70.30;34.88;;;;;;;-142.57;100.00;55383.81;5033728;28;20032;-77
2024/01/13 03:31:25;;;;;;;73.22;36.05;;;;;;;-142.57;100.00;55373.72;5016370;28;20041;-79
2024/01/13 03:33:51;;;;;;;86.88;37.25;;;;;;;-142.57;100.00;55373.72;5034399;28;20068;-78
2024/01/13 03:36:17;;;;;;;74.55;35.55;;;;;;;-142.57;100.00;55325.22;5034660;28;20114;-80
2024/01/13 03:38:43;;;;;;;81.15;36.95;;;;;;;-142.57;100.00;55286.84;5033774;28;20033;-80
2024/01/13 03:41:09;;;;;;;79.00;37.83;;;;;;;-142.57;100.00;55256.53;5031936;28;20041;-80
2024/01/13 03:43:35;;;;;;;76.70;35.30;;;;;;;-142.57;100.00;55266.63;5033742;28;20053;-78
2024/01/13 03:46:02;;;;;;;77.40;36.55;;;;;;;-142.57;100.00;55252.50;5033618;28;20041;-78
2024/01/13 03:48:28;;;;;;;81.72;37.38;;;;;;;-142.57;100.00;55248.47;5032782;28;20545;-79
2024/01/13 03:50:54;;;;;;;77.03;38.17;;;;;;;-142.57;100.00;55254.50;5033499;28;20109;-79
2024/01/13 03:53:20;;;;;;;76.63;35.85;;;;;;;-142.57;100.00;55296.94;5033653;28;20037;-81
2024/01/13 03:55:46;;;;;;;76.05;36.05;;;;;;;-142.57;100.00;55268.66;5034178;28;20390;-81
2024/01/13 03:58:51;;;;;;;77.28;36.03;;;;;;;-142.57;100.00;55311.09;5034531;28;20095;-79
2024/01/13 04:01:17;;;;;;;71.40;33.92;;;;;;;-142.57;100.00;55288.88;5036484;28;20129;-79
2024/01/13 04:03:45;;;;;;;78.22;35.22;;;;;;;-142.57;100.00;55292.91;5042249;28;20106;-79
2024/01/13 04:06:12;;;;;;;72.82;33.42;;;;;;;-142.57;100.00;55321.19;5043834;28;20037;-80
2024/01/13 04:08:38;;;;;;;75.30;34.45;;;;;;;-142.57;100.00;55272.69;5043673;28;20098;-79
2024/01/13 04:11:08;;;;;;;71.03;32.65;;;;;;;-142.57;100.00;55317.16;5046167;28;20041;-79
2024/01/13 04:13:34;;;;;;;69.22;31.60;;;;;;;-142.57;100.00;55329.28;5051380;28;20046;-80
2024/01/13 04:15:59;;;;;;;74.38;35.22;;;;;;;-142.57;100.00;55371.69;5045809;28;20026;-79
2024/01/13 04:18:25;;;;;;;68.90;32.40;;;;;;;-142.57;100.00;55349.47;5041995;28;20113;-79
2024/01/13 04:20:51;;;;;;;69.65;32.20;;;;;;;-142.57;100.00;55359.56;5007519;28;20043;-79
2024/01/13 04:23:16;;;;;;;74.47;33.58;;;;;;;-142.57;100.00;55321.19;5041699;28;20383;-79
2024/01/13 04:25:42;;;;;;;76.05;34.28;;;;;;;-142.57;100.00;55317.16;5042469;28;20128;-80
2024/01/13 04:28:08;;;;;;;72.90;32.97;;;;;;;-142.57;100.00;55329.28;5041419;28;20041;-80
2024/01/13 04:30:35;;;;;;;68.63;31.60;;;;;;;-142.57;100.00;55323.22;5042210;28;20037;-80
2024/01/13 04:33:01;;;;;;;76.53;34.83;;;;;;;-142.57;100.00;55341.38;5041714;28;20059;-80
2024/01/13 04:35:27;;;;;;;68.18;33.33;;;;;;;-142.57;100.00;55317.16;5043045;28;20041;-80
2024/01/13 04:37:53;;;;;;;65.40;30.90;;;;;;;-142.57;100.00;55296.94;5041616;28;20034;-81
2024/01/13 04:40:18;;;;;;;72.13;33.75;;;;;;;-142.57;100.00;55337.34;5041598;28;20040;-78
2024/01/13 04:42:44;;;;;;;69.50;32.55;;;;;;;-142.57;100.00;55321.19;5041437;28;20034;-80
2024/01/13 04:45:09;;;;;;;67.25;32.03;;;;;;;-142.57;100.00;55325.22;5042907;28;20034;-79
2024/01/13 04:47:35;;;;;;;70.07;33.13;;;;;;;-142.57;100.00;55331.28;5043066;28;20026;-80
2024/01/13 04:50:00;;;;;;;74.15;32.70;;;;;;;-142.57;100.00;55345.44;5043423;28;20077;-79
2024/01/13 04:52:26;;;;;;;70.13;33.03;;;;;;;-142.57;100.00;55323.22;5043724;28;20030;-80
2024/01/13 04:54:51;;;;;;;68.03;31.25;;;;;;;-142.57;100.00;55317.16;5044288;28;20200;-79
2024/01/13 04:57:17;;;;;;;68.72;32.67;;;;;;;-142.57;100.00;55329.28;5044072;28;20106;-79
2024/01/13 04:59:44;;;;;;;71.80;33.15;;;;;;;-142.57;100.00;55353.50;5054560;28;20034;-78
2024/01/13 05:02:10;;;;;;;63.53;30.00;;;;;;;-142.57;100.00;55329.28;5058566;28;20052;-79
2024/01/13 05:04:35;;;;;;;65.97;30.95;;;;;;;-142.57;100.00;55313.09;5057251;28;20021;-79
2024/01/13 05:07:01;;;;;;;69.13;31.10;;;;;;;-142.57;100.00;55327.25;5057063;28;20056;-79
2024/01/13 05:09:26;;;;;;;68.13;32.17;;;;;;;-142.57;100.00;55347.44;5057864;28;20052;-81
2024/01/13 05:11:52;;;;;;;69.78;31.73;;;;;;;-142.57;100.00;55321.19;5058380;28;20101;-79
2024/01/13 05:14:19;;;;;;;68.38;31.35;;;;;;;-142.57;100.00;55290.88;5059120;28;20045;-82
2024/01/13 05:16:45;;;;;;;71.22;32.28;;;;;;;-142.57;100.00;55317.16;5058069;28;20064;-81
2024/01/13 05:19:11;;;;;;;69.22;32.15;;;;;;;-142.57;100.00;55333.31;5059284;28;20061;-79
2024/01/13 05:21:36;;;;;;;68.72;30.88;;;;;;;-142.57;100.00;55329.28;5057465;28;20076;-82
2024/01/13 05:24:02;;;;;;;65.72;32.30;;;;;;;-142.57;100.00;55327.25;5058685;28;20040;-81
2024/01/13 05:26:27;;;;;;;71.32;31.65;;;;;;;-142.57;100.00;55307.03;5058186;28;20047;-80
2024/01/13 05:28:53;;;;;;;72.03;32.53;;;;;;;-142.57;100.00;55292.91;5045893;28;20472;-79
2024/01/13 05:31:19;;;;;;;67.60;30.52;;;;;;;-142.57;100.00;55321.19;5036974;28;20030;-79
2024/01/13 05:33:44;;;;;;;65.03;30.90;;;;;;;-142.57;100.00;55325.22;5036137;28;20398;-80
2024/01/13 05:36:10;;;;;;;69.30;31.42;;;;;;;-142.57;100.00;55309.06;5038413;28;20087;-81
2024/01/13 05:38:56;;;;;;;68.28;32.17;;;;;;;-142.57;100.00;55329.28;5049332;28;20037;-81
2024/01/13 05:41:22;;;;;;;69.93;32.10;;;;;;;-142.57;100.00;55311.09;5052075;28;20513;-79
2024/01/13 05:43:48;;;;;;;74.95;31.52;;;;;;;-142.57;100.00;55268.66;5037264;28;20129;-78
2024/01/13 05:46:13;;;;;;;71.10;32.72;;;;;;;-142.57;100.00;55268.66;5038041;28;20037;-80
2024/01/13 05:48:38;;;;;;;68.97;33.20;;;;;;;-142.57;100.00;55292.91;5037409;28;20025;-80
2024/01/13 05:51:04;;;;;;;62.40;30.17;;;;;;;-142.57;100.00;55292.91;5038465;28;20036;-80
2024/01/13 05:53:30;;;;;;;65.68;30.10;;;;;;;-142.57;100.00;55373.72;5036740;28;20050;-80
2024/01/13 05:55:55;;;;;;;70.00;31.30;;;;;;;-142.57;100.00;55329.28;5034375;28;20029;-77
2024/01/13 05:58:21;;;;;;;73.43;31.90;;;;;;;-142.57;100.00;55309.06;5034532;28;20402;-80
2024/01/13 06:00:46;;;;;;;64.38;30.95;;;;;;;-142.57;100.00;55337.34;5038366;28;20107;-84
2024/01/13 06:03:12;;;;;;;67.57;31.20;;;;;;;-142.57;100.00;55341.38;5037042;28;20038;-86
2024/01/13 06:05:40;;;;;;;68.93;31.42;;;;;;;-142.57;100.00;55333.31;5038892;28;20038;-82
2024/01/13 06:08:06;;;;;;;67.13;30.58;;;;;;;-142.57;100.00;55349.47;5038611;28;20040;-85
2024/01/13 06:10:31;;;;;;;64.65;30.55;;;;;;;-142.57;100.00;55345.44;5020753;28;20434;-86
2024/01/13 06:12:59;;;;;;;68.03;31.40;;;;;;;-142.57;100.00;55325.22;5037945;28;20044;-83
2024/01/13 06:15:26;;;;;;;65.43;29.83;;;;;;;-142.57;100.00;55339.38;5036370;28;20025;-80
2024/01/13 06:17:52;;;;;;;81.32;31.20;;;;;;;-142.57;100.00;55329.28;5037759;28;20112;-84
2024/01/13 06:20:18;;;;;;;68.28;30.88;;;;;;;-142.57;100.00;55270.69;5036816;28;20036;-82
2024/01/13 06:22:43;;;;;;;66.78;30.38;;;;;;;-142.57;100.00;55266.63;5036153;28;20042;-81
2024/01/13 06:25:09;;;;;;;72.55;33.05;;;;;;;-142.57;100.00;55280.78;5036154;28;20045;-82
2024/01/13 06:27:34;;;;;;;73.30;32.38;;;;;;;-142.57;100.00;55284.81;5035891;28;20053;-82
2024/01/13 06:30:00;;;;;;;71.55;32.55;;;;;;;-142.57;100.00;55294.94;5035034;28;20033;-80
2024/01/13 06:32:26;;;;;;;68.80;32.90;;;;;;;-142.57;100.00;55286.84;5034482;28;20037;-83
2024/01/13 06:34:51;;;;;;;72.65;30.98;;;;;;;-142.57;100.00;55270.69;5035912;28;20045;-81
2024/01/13 06:37:17;;;;;;;72.07;31.95;;;;;;;-142.57;100.00;55254.50;5044014;28;20060;-82
2024/01/13 06:39:42;;;;;;;71.20;31.85;;;;;;;-142.57;100.00;55264.63;5046463;28;20097;-83
2024/01/13 06:42:08;;;;;;;68.95;31.73;;;;;;;-142.57;100.00;55313.09;5037468;28;20103;-83
2024/01/13 06:44:34;;;;;;;68.45;31.48;;;;;;;-142.57;100.00;55303.00;5033993;28;20048;-81
2024/01/13 06:47:02;;;;;;;71.78;30.98;;;;;;;-142.57;100.00;55284.81;5034755;28;20049;-83
2024/01/13 06:49:28;;;;;;;66.65;30.95;;;;;;;-142.57;100.00;55296.94;5035541;28;20036;-82
2024/01/13 06:51:53;;;;;;;67.70;30.77;;;;;;;-142.57;100.00;55280.78;5035400;28;20037;-82
2024/01/13 06:54:19;;;;;;;74.13;30.77;;;;;;;-142.57;100.00;55325.22;5035394;28;20037;-85
2024/01/13 06:56:44;;;;;;;71.15;31.95;;;;;;;-142.57;100.00;55294.94;5035258;28;20066;-81
2024/01/13 06:59:10;;;;;;;68.75;30.58;;;;;;;-142.57;100.00;55325.22;5035431;28;20124;-84
2024/01/13 07:01:36;;;;;;;70.63;30.48;;;;;;;-142.57;100.00;55313.09;5035361;28;20044;-81
2024/01/13 07:04:01;;;;;;;75.47;34.08;;;;;;;-142.57;100.00;55325.22;5035386;28;20034;-82
2024/01/13 07:06:27;;;;;;;82.80;33.67;;;;;;;-142.57;100.00;55313.09;5036009;28;20113;-83
2024/01/13 07:08:57;;;;;;;76.30;34.42;;;;;;;-142.57;100.00;55333.31;5034111;28;20045;-82
2024/01/13 07:11:23;;;;;;;84.47;33.53;;;;;;;-142.57;100.00;55343.41;5033675;28;20038;-82
2024/01/13 07:13:49;;;;;;;77.88;34.13;;;;;;;-142.57;100.00;55341.38;5035291;28;20030;-81
2024/01/13 07:16:14;;;;;;;90.20;37.50;;;;;;;-142.57;100.00;55325.22;5035384;28;20509;-82
2024/01/13 07:18:41;;;;;;;80.03;34.72;;;;;;;-142.57;100.00;55345.44;5033651;28;20034;-81
2024/01/13 07:21:06;;;;;;;78.00;33.90;;;;;;;-142.57;100.00;55333.31;5034762;28;20127;-82
2024/01/13 07:23:33;;;;;;;77.65;33.08;;;;;;;-142.57;100.00;55357.56;5032672;28;20474;-82
2024/01/13 07:26:01;;;;;;;79.65;33.30;;;;;;;-142.57;100.00;55361.59;5035088;28;20037;-80
2024/01/13 07:28:27;;;;;;;86.93;34.42;;;;;;;-142.57;100.00;55317.16;5034264;28;20033;-81
2024/01/13 07:30:53;;;;;;;84.00;35.42;;;;;;;-142.57;100.00;55321.19;5033361;28;20105;-81
2024/01/13 07:33:19;;;;;;;84.60;36.97;;;;;;;-142.57;100.00;55351.50;5033603;28;20069;-79
2024/01/13 07:35:44;;;;;;;91.68;38.75;;;;;;;-142.57;100.00;55353.50;5034097;28;20360;-82
2024/01/13 07:38:10;;;;;;;98.18;38.13;;;;;;;-142.57;100.00;55371.69;5033435;28;20044;-80
2024/01/13 07:40:35;;;;;;;94.25;38.60;;;;;;;-142.57;100.00;55385.84;5033459;28;20052;-80
2024/01/13 07:43:01;;;;;;;251.32;43.08;;;;;;;-142.57;100.00;55357.56;5032700;28;20049;-81
2024/01/13 07:45:27;;;;;;;211.23;43.30;;;;;;;-142.57;100.00;55397.97;5033485;28;20036;-81
2024/01/13 07:47:52;;;;;;;138.10;40.50;;;;;;;-142.57;100.00;55369.69;5033450;28;20397;-81
2024/01/13 07:50:18;;;;;;;92.90;40.03;;;;;;;-142.57;100.00;55365.63;5033464;28;20030;-81
2024/01/13 07:52:44;;;;;;;88.63;39.30;;;;;;;-142.57;100.00;55422.22;5033509;28;20037;-81
2024/01/13 07:55:10;;;;;;;97.78;41.40;;;;;;;-142.57;100.00;55454.53;5033464;28;20038;-81
2024/01/13 07:57:35;;;;;;;84.95;39.22;;;;;;;-142.57;100.00;55494.94;5033305;28;20487;-82
2024/01/13 08:00:02;;;;;;;98.50;40.65;;;;;;;-142.57;100.00;55575.75;5034502;28;20040;-82
2024/01/13 08:02:38;;;;;;;90.93;40.33;;;;;;;-142.57;100.00;55622.22;5037314;28;20076;-81
2024/01/13 08:05:04;;;;;;;115.45;41.88;;;;;;;-142.57;100.00;55658.59;5036414;28;20026;-81
2024/01/13 08:07:29;;;;;;;88.10;40.88;;;;;;;-142.57;100.00;55652.53;5032956;28;20026;-81
2024/01/13 08:09:55;;;;;;;94.18;41.33;;;;;;;-142.57;100.00;55670.72;5033530;28;20045;-81
2024/01/13 08:12:20;;;;;;;90.10;41.78;;;;;;;-142.57;100.00;55660.63;5033467;28;20047;-83
2024/01/13 08:14:46;;;;;;;83.00;37.08;;;;;;;-142.57;100.00;55699.00;5034065;28;20057;-82
2024/01/13 08:17:12;;;;;;;79.40;36.78;;;;;;;-142.57;100.00;55666.69;5034031;28;20045;-82
2024/01/13 08:19:38;;;;;;;81.53;38.97;;;;;;;-142.57;100.00;55620.22;5032553;28;20064;-82
2024/01/13 08:22:04;;;;;;;84.43;38.90;;;;;;;-142.57;100.00;55636.38;5033395;28;20368;-82
2024/01/13 08:24:30;;;;;;;87.43;40.85;;;;;;;-142.57;100.00;55622.22;5032905;28;20160;-84
2024/01/13 08:26:57;;;;;;;88.32;38.58;;;;;;;-142.57;100.00;55644.47;5032812;28;20094;-79
2024/01/13 08:29:22;;;;;;;83.75;38.78;;;;;;;-142.57;100.00;55652.53;5032524;28;20116;-82
2024/01/13 08:31:50;;;;;;;79.32;36.67;;;;;;;-142.57;100.00;55646.47;5032980;28;20095;-83
2024/01/13 08:34:17;;;;;;;88.68;37.53;;;;;;;-142.57;100.00;55642.44;5034640;28;20406;-81
2024/01/13 08:36:43;;;;;;;77.22;35.50;;;;;;;-142.57;100.00;55634.34;5037421;28;20095;-82
2024/01/13 08:39:09;;;;;;;80.50;34.80;;;;;;;-142.57;100.00;55600.00;5037689;28;20029;-82
2024/01/13 08:41:34;;;;;;;195.25;38.05;;;;;;;-142.57;100.00;55555.56;5036368;28;20037;-83
2024/01/13 08:44:01;;;;;;;81.45;33.33;;;;;;;-142.57;100.00;55577.78;5044453;28;20041;-82
2024/01/13 08:46:26;;;;;;;69.43;32.08;;;;;;;-142.57;100.00;55604.03;5041422;28;20091;-82
2024/01/13 08:48:52;;;;;;;71.88;32.55;;;;;;;-142.57;100.00;55575.75;5036596;28;20437;-87
2024/01/13 08:51:18;;;;;;;70.22;32.63;;;;;;;-142.57;100.00;55555.56;5038162;28;20057;-83
2024/01/13 08:53:47;;;;;;;62.83;30.80;;;;;;;-142.57;100.00;55575.75;5036021;28;20037;-84
2024/01/13 08:56:14;;;;;;;68.75;32.75;;;;;;;-142.57;100.00;55583.84;5039697;28;20038;-86
2024/01/13 08:58:39;;;;;;;64.50;30.63;;;;;;;-142.57;100.00;55610.09;5039735;28;20037;-82
2024/01/13 09:01:05;;;;;;;70.53;32.10;;;;;;;-142.57;100.00;55618.19;5042920;28;20063;-82
2024/01/13 09:03:31;;;;;;;65.38;31.15;;;;;;;-142.57;100.00;55618.19;5051489;28;20418;-84
2024/01/13 09:05:56;;;;;;;64.75;31.20;;;;;;;-142.57;100.00;55575.75;5051789;28;20141;-84
2024/01/13 09:08:22;;;;;;;61.35;31.30;;;;;;;-142.57;100.00;55563.63;5039021;28;20049;-85
2024/01/13 09:10:48;;;;;;;61.50;30.17;;;;;;;-142.57;100.00;55571.72;5020239;28;20072;-83
2024/01/13 09:13:13;;;;;;;65.00;30.95;;;;;;;-142.57;100.00;55567.69;5037443;28;20508;-86
2024/01/13 09:15:39;;;;;;;68.75;33.00;;;;;;;-142.57;100.00;55608.09;5037896;28;20116;-88
2024/01/13 09:18:08;;;;;;;68.20;33.28;;;;;;;-142.57;100.00;55587.88;5037806;28;20406;-85
2024/01/13 09:20:34;;;;;;;68.53;32.75;;;;;;;-142.57;100.00;55569.69;5038877;28;20044;-86
2024/01/13 09:23:00;;;;;;;71.50;34.00;;;;;;;-142.57;100.00;55555.56;5038594;28;20104;-87
2024/01/13 09:25:26;;;;;;;65.90;33.10;;;;;;;-142.57;100.00;55547.47;5037843;28;20382;-90
2024/01/13 09:27:54;;;;;;;65.70;32.53;;;;;;;-142.57;100.00;55585.84;5039169;28;20128;-87
2024/01/13 09:30:21;;;;;;;70.22;34.42;;;;;;;-142.57;100.00;55600.00;5042100;28;20063;-84
2024/01/13 09:32:47;;;;;;;62.92;31.95;;;;;;;-142.57;100.00;55583.84;5039300;28;20092;-86
2024/01/13 09:35:13;;;;;;;69.53;34.20;;;;;;;-142.57;100.00;55561.63;5038419;28;20029;-81
2024/01/13 09:37:42;;;;;;;77.72;33.63;;;;;;;-142.57;100.00;55595.97;5038517;28;20059;-86
2024/01/13 09:40:08;;;;;;;69.63;31.40;;;;;;;-142.57;100.00;55583.84;5054222;28;20045;-85
2024/01/13 09:42:51;;;;;;;77.75;35.92;;;;;;;-142.57;100.00;55600.00;5039017;28;20099;-87
2024/01/13 09:45:18;;;;;;;81.25;35.95;;;;;;;-142.57;100.00;55620.22;5033987;28;20032;-84
2024/01/13 09:47:46;;;;;;;79.40;36.05;;;;;;;-142.57;100.00;55604.03;5038123;28;20037;-89
2024/01/13 09:50:14;;;;;;;70.85;34.78;;;;;;;-142.57;100.00;55593.94;5037100;28;20478;-86
2024/01/13 09:52:43;;;;;;;75.20;35.97;;;;;;;-142.57;100.00;55626.28;5039877;28;20052;-89
2024/01/13 09:55:14;;;;;;;70.78;33.83;;;;;;;-142.57;100.00;55579.81;5036176;28;20037;-86
2024/01/13 09:57:40;;;;;;;74.25;34.13;;;;;;;-142.57;100.00;55608.09;5036934;28;20080;-85
2024/01/13 10:00:07;;;;;;;79.10;34.28;;;;;;;-142.57;100.00;55620.22;5039565;28;20486;-85
2024/01/13 10:02:33;;;;;;;69.97;34.03;;;;;;;-142.57;100.00;55628.28;5037391;28;20060;-83
2024/01/13 10:04:59;;;;;;;73.22;31.02;;;;;;;-142.57;100.00;55618.19;5037461;28;20040;-84
2024/01/13 10:07:28;;;;;;;65.38;31.30;;;;;;;-142.57;100.00;55640.41;5035916;28;20475;-86
2024/01/13 10:09:53;;;;;;;62.40;30.23;;;;;;;-142.57;100.00;55640.41;5036868;28;20091;-86
2024/01/13 10:12:19;;;;;;;54.95;28.75;;;;;;;-142.57;100.00;55606.06;5036846;28;20475;-85
2024/01/13 10:14:44;;;;;;;60.45;28.98;;;;;;;-142.57;100.00;55670.72;5038193;28;20540;-82
2024/01/13 10:17:11;;;;;;;59.15;28.08;;;;;;;-142.57;100.00;55646.47;5036660;28;20041;-83
2024/01/13 10:19:42;;;;;;;59.35;28.13;;;;;;;-142.57;100.00;55630.31;5045502;28;20120;-82
2024/01/13 10:22:08;;;;;;;60.58;28.95;;;;;;;-142.57;100.00;55674.75;5030762;28;20037;-81
2024/01/13 10:24:35;;;;;;;63.30;28.23;;;;;;;-142.57;100.00;55694.97;5030233;28;20130;-79
2024/01/13 10:27:01;;;;;;;57.35;28.50;;;;;;;-142.57;100.00;55658.59;5019680;28;20042;-83
2024/01/13 10:29:28;;;;;;;60.65;29.25;;;;;;;-142.57;100.00;55636.38;5024516;28;20037;-82
2024/01/13 10:31:54;;;;;;;59.88;29.65;;;;;;;-142.57;100.00;55709.09;5022279;28;20042;-84
2024/01/13 10:34:20;;;;;;;56.17;28.15;;;;;;;-142.57;100.00;55644.47;5018856;28;20029;-85
2024/01/13 10:36:46;;;;;;;53.70;27.00;;;;;;;-142.57;100.00;55674.75;5018013;28;20053;-80
2024/01/13 10:39:12;;;;;;;59.40;28.88;;;;;;;-142.57;100.00;55648.50;5017137;28;20564;-83
2024/01/13 10:41:43;;;;;;;63.38;30.13;;;;;;;-142.57;100.00;55646.47;5015085;28;20129;-82
2024/01/13 10:44:09;;;;;;;58.30;28.88;;;;;;;-142.57;100.00;55676.78;5016034;28;20065;-83
2024/01/13 10:46:38;;;;;;;55.35;27.83;;;;;;;-142.57;100.00;55697.00;5015019;28;20030;-82
2024/01/13 10:49:13;;;;;;;57.63;26.95;;;;;;;-142.57;100.00;55688.91;5013940;28;20072;-83
2024/01/13 10:51:47;;;;;;;54.10;28.25;;;;;;;-142.57;100.00;55705.06;5032198;28;20033;-84